createdAt,value
2023-05-02T10:44:40.727Z,23.46
2023-05-02T10:47:21.295Z,23.33
2023-05-02T10:50:02.126Z,23.21
2023-05-02T10:52:35.194Z,23.27
2023-05-02T10:55:21.670Z,23.28
2023-05-02T10:58:00.878Z,23.02
2023-05-02T11:00:36.299Z,23.19
2023-05-02T11:03:03.826Z,23.28
2023-05-02T11:05:31.176Z,23.50
2023-05-02T11:08:19.335Z,23.62
2023-05-02T11:10:47.610Z,23.69
2023-05-02T11:13:14.841Z,23.81
2023-05-02T11:15:42.013Z,23.75
2023-05-02T11:18:14.049Z,24.04
2023-05-02T11:20:42.522Z,24.02
2023-05-02T11:23:16.344Z,23.99
2023-05-02T11:25:50.814Z,23.77
2023-05-02T11:28:36.936Z,24.09
2023-05-02T11:31:05.785Z,24.16
2023-05-02T11:33:33.029Z,24.17
2023-05-02T11:36:00.390Z,24.25
2023-05-02T11:38:36.876Z,24.02
2023-05-02T11:41:04.606Z,23.98
2023-05-02T11:43:32.723Z,24.10
2023-05-02T11:46:02.167Z,24.16
2023-05-02T11:48:30.905Z,24.29
2023-05-02T11:51:03.665Z,24.15
2023-05-02T11:53:31.646Z,24.37
2023-05-02T11:56:02.961Z,24.59
2023-05-02T11:58:34.955Z,24.77
2023-05-02T12:01:15.734Z,24.92
2023-05-02T12:03:44.695Z,24.82
2023-05-02T12:06:18.887Z,24.95
2023-05-02T12:08:46.725Z,24.94
2023-05-02T12:11:17.754Z,24.78
2023-05-02T12:13:47.508Z,24.87
2023-05-02T12:16:15.619Z,24.84
2023-05-02T12:18:43.482Z,24.82
2023-05-02T12:21:10.906Z,24.63
2023-05-02T12:23:39.981Z,24.52
2023-05-02T12:26:21.596Z,24.52
2023-05-02T12:28:54.682Z,24.53
2023-05-02T12:31:23.684Z,24.12
2023-05-02T12:33:52.778Z,24.17
2023-05-02T12:36:20.213Z,24.39
2023-05-02T12:38:57.229Z,24.23
2023-05-02T12:41:51.595Z,24.34
2023-05-02T12:44:36.546Z,24.12
2023-05-02T12:47:03.820Z,24.13
2023-05-02T12:49:31.283Z,24.01
2023-05-02T12:51:59.259Z,24.12
2023-05-02T12:54:26.763Z,24.01
2023-05-02T12:56:54.079Z,24.26
2023-05-02T12:59:33.111Z,24.15
2023-05-02T13:02:00.853Z,24.19
2023-05-02T13:04:39.178Z,24.22
2023-05-02T13:07:06.961Z,24.19
2023-05-02T13:09:34.121Z,23.92
2023-05-02T13:12:04.053Z,23.88
2023-05-02T13:14:31.265Z,24.04
2023-05-02T13:16:59.190Z,24.10
2023-05-02T13:19:29.228Z,24.01
2023-05-02T13:21:56.413Z,23.92
2023-05-02T13:24:23.534Z,23.96
2023-05-02T13:26:51.502Z,23.67
2023-05-02T13:29:18.719Z,23.72
2023-05-02T13:31:45.963Z,23.65
2023-05-02T13:34:13.174Z,23.51
2023-05-02T13:36:46.402Z,23.54
2023-05-02T13:39:14.025Z,23.51
2023-05-02T13:41:41.526Z,23.34
2023-05-02T13:44:09.393Z,23.27
2023-05-02T13:46:37.818Z,23.21
2023-05-02T13:49:05.510Z,23.28
2023-05-02T13:51:32.881Z,23.06
2023-05-02T13:54:00.419Z,23.13
2023-05-02T13:56:27.818Z,23.10
2023-05-02T13:58:55.193Z,23.06
2023-05-02T14:01:22.609Z,23.02
2023-05-02T14:03:50.938Z,22.96
2023-05-02T14:06:18.301Z,22.98
2023-05-02T14:08:45.985Z,22.93
2023-05-02T14:11:13.230Z,22.86
2023-05-02T14:13:44.386Z,22.79
2023-05-02T14:16:11.631Z,22.76
2023-05-02T14:18:38.900Z,22.85
2023-05-02T14:21:06.229Z,22.76
2023-05-02T14:23:33.656Z,22.98
2023-05-02T14:26:02.097Z,22.81
2023-05-02T14:28:29.338Z,22.81
2023-05-02T14:30:56.675Z,22.82
2023-05-02T14:33:23.946Z,22.81
2023-05-02T14:35:51.172Z,22.79
2023-05-02T14:38:18.353Z,22.72
2023-05-02T14:40:45.554Z,22.44
2023-05-02T14:43:15.679Z,22.45
2023-05-02T14:45:42.827Z,22.65
2023-05-02T14:48:10.868Z,22.62
2023-05-02T14:50:39.647Z,22.51
2023-05-02T14:53:07.065Z,22.55
2023-05-02T14:55:38.887Z,22.47
2023-05-02T14:58:10.383Z,22.52
2023-05-02T15:00:38.745Z,22.56
2023-05-02T15:03:07.934Z,22.48
2023-05-02T15:05:37.052Z,22.52
2023-05-02T15:08:04.804Z,22.40
2023-05-02T15:10:34.583Z,22.31
2023-05-02T15:13:01.797Z,22.35
2023-05-02T15:15:28.998Z,22.27
2023-05-02T15:17:56.166Z,22.34
2023-05-02T15:20:23.395Z,22.24
2023-05-02T15:22:51.027Z,22.11
2023-05-02T15:25:18.418Z,22.10
2023-05-02T15:27:45.867Z,22.28
2023-05-02T15:30:14.035Z,22.03
2023-05-02T15:32:42.189Z,21.93
2023-05-02T15:35:09.585Z,21.93
2023-05-02T15:37:36.770Z,22.00
2023-05-02T15:40:04.977Z,21.92
2023-05-02T15:42:36.838Z,21.82
2023-05-02T15:45:04.646Z,21.92
2023-05-02T15:47:31.982Z,22.03
2023-05-02T15:49:59.495Z,21.82
2023-05-02T15:52:26.801Z,21.94
2023-05-02T15:54:56.052Z,21.77
2023-05-02T15:57:23.282Z,21.56
2023-05-02T15:59:50.780Z,21.46
2023-05-02T16:02:17.983Z,21.41
2023-05-02T16:04:45.192Z,21.42
2023-05-02T16:07:12.305Z,21.24
2023-05-02T16:09:40.063Z,21.22
2023-05-02T16:12:07.328Z,21.15
2023-05-02T16:14:34.916Z,21.20
2023-05-02T16:17:02.285Z,21.11
2023-05-02T16:19:29.815Z,20.88
2023-05-02T16:21:56.976Z,20.85
2023-05-02T16:24:24.303Z,20.90
2023-05-02T16:26:51.596Z,20.73
2023-05-02T16:29:18.855Z,20.80
2023-05-02T16:31:46.081Z,20.59
2023-05-02T16:34:13.301Z,20.67
2023-05-02T16:36:40.505Z,20.67
2023-05-02T16:39:07.724Z,20.77
2023-05-02T16:41:36.136Z,20.52
2023-05-02T16:44:03.398Z,20.59
2023-05-02T16:46:31.652Z,20.57
2023-05-02T16:48:58.992Z,20.50
2023-05-02T16:51:26.471Z,20.53
2023-05-02T16:53:53.722Z,20.52
2023-05-02T16:56:21.495Z,20.46
2023-05-02T16:58:48.828Z,20.33
2023-05-02T17:01:16.224Z,20.33
2023-05-02T17:03:43.574Z,20.33
2023-05-02T17:06:10.796Z,20.26
2023-05-02T17:08:42.090Z,20.32
2023-05-02T17:11:09.330Z,20.33
2023-05-02T17:13:36.831Z,20.37
2023-05-02T17:16:04.531Z,20.35
2023-05-02T17:18:31.714Z,20.14
2023-05-02T17:20:58.921Z,20.18
2023-05-02T17:23:28.567Z,20.18
2023-05-02T17:25:56.079Z,20.14
2023-05-02T17:28:23.276Z,20.05
2023-05-02T17:30:54.646Z,19.99
2023-05-02T17:33:22.315Z,20.01
2023-05-02T17:35:49.770Z,19.87
2023-05-02T17:38:16.970Z,19.75
2023-05-02T17:40:44.238Z,19.70
2023-05-02T17:43:11.432Z,19.57
2023-05-02T17:45:41.181Z,19.67
2023-05-02T17:48:08.710Z,19.60
2023-05-02T17:50:39.769Z,19.57
2023-05-02T17:53:08.207Z,19.54
2023-05-02T17:55:38.496Z,19.45
2023-05-02T17:58:05.885Z,19.47
2023-05-02T18:00:33.071Z,19.47
2023-05-02T18:03:00.403Z,19.36
2023-05-02T18:05:28.041Z,19.29
2023-05-02T18:07:56.020Z,19.16
2023-05-02T18:10:23.156Z,19.15
2023-05-02T18:12:50.500Z,19.22
2023-05-02T18:15:17.778Z,19.23
2023-05-02T18:17:44.990Z,19.22
2023-05-02T18:20:12.621Z,19.19
2023-05-02T18:22:40.138Z,19.09
2023-05-02T18:25:08.311Z,19.08
2023-05-02T18:27:35.525Z,19.11
2023-05-02T18:30:03.627Z,18.98
2023-05-02T18:32:34.045Z,18.88
2023-05-02T18:35:02.025Z,18.91
2023-05-02T18:37:34.130Z,18.84
2023-05-02T18:40:01.411Z,18.82
2023-05-02T18:42:28.668Z,18.87
2023-05-02T18:44:55.879Z,18.88
2023-05-02T18:47:26.277Z,18.76
2023-05-02T18:49:56.364Z,18.67
2023-05-02T18:52:24.856Z,18.72
2023-05-02T18:54:52.063Z,18.57
2023-05-02T18:57:19.307Z,18.58
2023-05-02T18:59:46.497Z,18.50
2023-05-02T19:02:15.453Z,18.43
2023-05-02T19:04:42.642Z,18.40
2023-05-02T19:07:09.828Z,18.29
2023-05-02T19:09:37.032Z,18.38
2023-05-02T19:12:04.365Z,18.36
2023-05-02T19:14:33.249Z,18.43
2023-05-02T19:17:00.444Z,18.55
2023-05-02T19:19:27.652Z,18.38
2023-05-02T19:21:54.898Z,18.36
2023-05-02T19:24:22.047Z,18.29
2023-05-02T19:26:49.181Z,18.20
2023-05-02T19:29:16.421Z,18.09
2023-05-02T19:31:44.885Z,18.17
2023-05-02T19:34:12.205Z,18.07
2023-05-02T19:36:39.376Z,18.05
2023-05-02T19:39:06.647Z,18.09
2023-05-02T19:41:34.479Z,18.16
2023-05-02T19:44:01.694Z,18.20
2023-05-02T19:46:33.252Z,18.22
2023-05-02T19:49:00.539Z,18.13
2023-05-02T19:51:28.220Z,17.96
2023-05-02T19:53:58.518Z,18.09
2023-05-02T19:56:29.023Z,17.96
2023-05-02T19:58:59.484Z,17.96
2023-05-02T20:01:29.214Z,17.99
2023-05-02T20:03:56.750Z,17.98
2023-05-02T20:06:24.508Z,17.89
2023-05-02T20:08:52.866Z,17.82
2023-05-02T20:11:20.161Z,17.75
2023-05-02T20:13:47.383Z,17.92
2023-05-02T20:16:15.005Z,17.65
2023-05-02T20:18:42.332Z,17.67
2023-05-02T20:21:09.491Z,17.47
2023-05-02T20:23:36.641Z,17.38
2023-05-02T20:26:03.823Z,17.47
2023-05-02T20:28:31.120Z,17.40
2023-05-02T20:30:58.286Z,17.45
2023-05-02T20:33:33.561Z,17.34
2023-05-02T20:36:08.808Z,17.17
2023-05-02T20:38:36.080Z,17.10
2023-05-02T20:41:11.552Z,17.13
2023-05-02T20:43:40.268Z,17.04
2023-05-02T20:46:16.589Z,17.10
2023-05-02T20:48:43.973Z,17.03
2023-05-02T20:51:11.427Z,17.16
2023-05-02T20:53:39.113Z,17.14
2023-05-02T20:56:07.165Z,17.20
2023-05-02T20:58:34.388Z,17.17
2023-05-02T21:01:01.670Z,16.94
2023-05-02T21:03:28.993Z,17.04
2023-05-02T21:05:59.074Z,16.76
2023-05-02T21:08:26.288Z,16.92
2023-05-02T21:10:53.895Z,17.03
2023-05-02T21:13:21.898Z,16.89
2023-05-02T21:15:49.176Z,17.00
2023-05-02T21:18:16.525Z,16.93
2023-05-02T21:20:43.766Z,16.80
2023-05-02T21:23:11.447Z,16.90
2023-05-02T21:25:38.703Z,16.80
2023-05-02T21:28:06.206Z,16.84
2023-05-02T21:30:33.477Z,16.83
2023-05-02T21:33:00.740Z,16.79
2023-05-02T21:35:28.810Z,16.61
2023-05-02T21:37:56.110Z,16.66
2023-05-02T21:40:23.231Z,16.55
2023-05-02T21:42:50.478Z,16.59
2023-05-02T21:45:17.760Z,16.54
2023-05-02T21:47:45.121Z,16.51
2023-05-02T21:50:12.389Z,16.38
2023-05-02T21:52:39.791Z,16.45
2023-05-02T21:55:07.469Z,16.48
2023-05-02T21:57:34.747Z,16.44
2023-05-02T22:00:02.233Z,16.47
2023-05-02T22:02:29.687Z,16.47
2023-05-02T22:04:57.802Z,16.59
2023-05-02T22:07:25.131Z,16.58
2023-05-02T22:09:52.471Z,16.59
2023-05-02T22:12:24.300Z,16.56
2023-05-02T22:14:51.570Z,16.61
2023-05-02T22:17:18.681Z,16.47
2023-05-02T22:19:50.335Z,16.45
2023-05-02T22:22:17.987Z,16.48
2023-05-02T22:24:45.183Z,16.37
2023-05-02T22:27:12.422Z,16.35
2023-05-02T22:29:39.526Z,16.27
2023-05-02T22:32:06.812Z,16.32
2023-05-02T22:34:34.144Z,16.44
2023-05-02T22:37:01.400Z,16.48
2023-05-02T22:39:29.002Z,16.35
2023-05-02T22:41:57.162Z,16.24
2023-05-02T22:44:24.338Z,16.32
2023-05-02T22:46:51.812Z,16.17
2023-05-02T22:49:19.813Z,16.18
2023-05-02T22:51:47.245Z,16.34
2023-05-02T22:54:15.205Z,16.21
2023-05-02T22:56:42.410Z,16.42
2023-05-02T22:59:09.971Z,16.41
2023-05-02T23:01:37.254Z,16.48
2023-05-02T23:04:04.607Z,16.45
2023-05-02T23:06:31.860Z,16.41
2023-05-02T23:08:59.037Z,16.31
2023-05-02T23:11:26.384Z,16.29
2023-05-02T23:13:53.554Z,16.25
2023-05-02T23:16:20.757Z,16.22
2023-05-02T23:18:47.940Z,16.31
2023-05-02T23:21:16.159Z,16.34
2023-05-02T23:23:43.517Z,16.27
2023-05-02T23:26:10.963Z,16.14
2023-05-02T23:28:39.108Z,16.11
2023-05-02T23:31:07.061Z,16.14
2023-05-02T23:33:35.529Z,16.13
2023-05-02T23:36:02.939Z,16.10
2023-05-02T23:38:30.126Z,16.00
2023-05-02T23:40:57.409Z,16.13
2023-05-02T23:43:24.580Z,16.04
2023-05-02T23:45:51.769Z,16.17
2023-05-02T23:48:20.318Z,15.83
2023-05-02T23:50:47.631Z,15.76
2023-05-02T23:53:14.810Z,15.93
2023-05-02T23:55:42.076Z,15.90
2023-05-02T23:58:09.519Z,15.82
